sensor_id;sensor_type;location;lat;lon;timestamp;temperature;humidity
49549;DHT22;35450;44.518;7.466;2023-03-01T00:02:13;5.40;97.10
49549;DHT22;35450;44.518;7.466;2023-03-01T00:05:17;5.40;97.00
49549;DHT22;35450;44.518;7.466;2023-03-01T00:08:21;5.40;97.10
49549;DHT22;35450;44.518;7.466;2023-03-01T00:11:28;5.40;97.30
49549;DHT22;35450;44.518;7.466;2023-03-01T00:14:32;5.40;96.80
49549;DHT22;35450;44.518;7.466;2023-03-01T00:17:37;5.30;96.80
49549;DHT22;35450;44.518;7.466;2023-03-01T00:20:41;5.50;97.00
49549;DHT22;35450;44.518;7.466;2023-03-01T00:23:45;5.50;97.00
49549;DHT22;35450;44.518;7.466;2023-03-01T00:26:53;5.60;96.90
49549;DHT22;35450;44.518;7.466;2023-03-01T00:29:58;5.40;97.10
49549;DHT22;35450;44.518;7.466;2023-03-01T00:33:03;5.50;97.20
49549;DHT22;35450;44.518;7.466;2023-03-01T00:36:08;5.60;97.20
49549;DHT22;35450;44.518;7.466;2023-03-01T00:39:14;5.60;97.10
49549;DHT22;35450;44.518;7.466;2023-03-01T00:42:18;5.60;96.90
49549;DHT22;35450;44.518;7.466;2023-03-01T00:45:22;5.50;97.20
49549;DHT22;35450;44.518;7.466;2023-03-01T00:48:27;5.60;97.20
49549;DHT22;35450;44.518;7.466;2023-03-01T00:51:32;5.60;97.20
49549;DHT22;35450;44.518;7.466;2023-03-01T00:54:36;5.60;97.10
49549;DHT22;35450;44.518;7.466;2023-03-01T00:57:40;5.60;97.10
49549;DHT22;35450;44.518;7.466;2023-03-01T01:00:44;5.50;97.50
49549;DHT22;35450;44.518;7.466;2023-03-01T01:03:51;5.50;97.50
49549;DHT22;35450;44.518;7.466;2023-03-01T01:06:55;5.60;97.50
49549;DHT22;35450;44.518;7.466;2023-03-01T01:09:59;5.60;97.10
49549;DHT22;35450;44.518;7.466;2023-03-01T01:13:04;5.50;96.60
49549;DHT22;35450;44.518;7.466;2023-03-01T01:16:08;5.40;96.80
49549;DHT22;35450;44.518;7.466;2023-03-01T01:19:13;5.50;96.90
49549;DHT22;35450;44.518;7.466;2023-03-01T01:22:17;5.60;96.90
49549;DHT22;35450;44.518;7.466;2023-03-01T01:25:21;5.60;97.00
49549;DHT22;35450;44.518;7.466;2023-03-01T01:28:28;5.60;97.00
49549;DHT22;35450;44.518;7.466;2023-03-01T01:31:33;5.50;96.90
49549;DHT22;35450;44.518;7.466;2023-03-01T01:34:37;5.60;97.00
49549;DHT22;35450;44.518;7.466;2023-03-01T01:37:42;5.60;96.90
49549;DHT22;35450;44.518;7.466;2023-03-01T01:40:47;5.60;96.90
49549;DHT22;35450;44.518;7.466;2023-03-01T01:47:21;5.40;97.70
49549;DHT22;35450;44.518;7.466;2023-03-01T01:50:26;5.40;97.80
49549;DHT22;35450;44.518;7.466;2023-03-01T01:53:30;5.40;97.70
49549;DHT22;35450;44.518;7.466;2023-03-01T01:56:34;5.50;97.80
49549;DHT22;35450;44.518;7.466;2023-03-01T01:59:42;5.50;97.10
49549;DHT22;35450;44.518;7.466;2023-03-01T02:02:49;5.50;97.10
49549;DHT22;35450;44.518;7.466;2023-03-01T02:06:06;5.50;97.20
49549;DHT22;35450;44.518;7.466;2023-03-01T02:09:15;5.50;97.50
49549;DHT22;35450;44.518;7.466;2023-03-01T02:12:23;5.60;97.60
49549;DHT22;35450;44.518;7.466;2023-03-01T02:15:32;5.50;97.10
49549;DHT22;35450;44.518;7.466;2023-03-01T02:18:38;5.50;96.90
49549;DHT22;35450;44.518;7.466;2023-03-01T02:31:20;5.60;96.20
49549;DHT22;35450;44.518;7.466;2023-03-01T02:34:43;5.60;96.40
49549;DHT22;35450;44.518;7.466;2023-03-01T02:37:48;5.60;96.60
49549;DHT22;35450;44.518;7.466;2023-03-01T02:40:52;5.50;96.80
49549;DHT22;35450;44.518;7.466;2023-03-01T02:43:57;5.50;97.10
49549;DHT22;35450;44.518;7.466;2023-03-01T02:47:02;5.50;97.10
49549;DHT22;35450;44.518;7.466;2023-03-01T02:50:41;5.50;96.80
49549;DHT22;35450;44.518;7.466;2023-03-01T02:57:12;5.40;96.70
49549;DHT22;35450;44.518;7.466;2023-03-01T03:00:22;5.50;96.60
49549;DHT22;35450;44.518;7.466;2023-03-01T03:03:28;5.60;96.20
49549;DHT22;35450;44.518;7.466;2023-03-01T03:06:33;5.60;96.30
49549;DHT22;35450;44.518;7.466;2023-03-01T03:09:37;5.70;96.50
49549;DHT22;35450;44.518;7.466;2023-03-01T03:12:42;5.70;97.10
49549;DHT22;35450;44.518;7.466;2023-03-01T03:15:46;5.60;97.20
49549;DHT22;35450;44.518;7.466;2023-03-01T03:18:50;5.50;97.30
49549;DHT22;35450;44.518;7.466;2023-03-01T03:21:54;5.50;97.50
49549;DHT22;35450;44.518;7.466;2023-03-01T03:24:58;5.40;98.00
49549;DHT22;35450;44.518;7.466;2023-03-01T03:28:03;5.50;97.40
49549;DHT22;35450;44.518;7.466;2023-03-01T03:31:13;5.30;97.60
49549;DHT22;35450;44.518;7.466;2023-03-01T03:34:17;5.40;97.50
49549;DHT22;35450;44.518;7.466;2023-03-01T03:37:21;5.20;97.70
49549;DHT22;35450;44.518;7.466;2023-03-01T03:40:49;5.20;97.80
49549;DHT22;35450;44.518;7.466;2023-03-01T03:43:53;5.30;97.80
49549;DHT22;35450;44.518;7.466;2023-03-01T03:46:57;5.30;97.80
49549;DHT22;35450;44.518;7.466;2023-03-01T03:50:01;5.30;97.70
49549;DHT22;35450;44.518;7.466;2023-03-01T03:53:08;5.30;98.20
49549;DHT22;35450;44.518;7.466;2023-03-01T03:56:12;5.30;98.10
49549;DHT22;35450;44.518;7.466;2023-03-01T03:59:16;5.30;98.20
49549;DHT22;35450;44.518;7.466;2023-03-01T04:02:20;5.20;98.10
49549;DHT22;35450;44.518;7.466;2023-03-01T04:05:26;5.20;97.80
49549;DHT22;35450;44.518;7.466;2023-03-01T04:08:30;5.20;97.60
49549;DHT22;35450;44.518;7.466;2023-03-01T04:11:34;5.10;97.90
49549;DHT22;35450;44.518;7.466;2023-03-01T04:14:38;5.20;97.70
49549;DHT22;35450;44.518;7.466;2023-03-01T04:17:44;5.20;97.80
49549;DHT22;35450;44.518;7.466;2023-03-01T04:20:48;5.30;97.70
49549;DHT22;35450;44.518;7.466;2023-03-01T04:23:51;5.40;97.70
49549;DHT22;35450;44.518;7.466;2023-03-01T04:26:56;5.50;97.40
49549;DHT22;35450;44.518;7.466;2023-03-01T04:30:01;5.50;96.80
49549;DHT22;35450;44.518;7.466;2023-03-01T04:33:10;5.50;96.70
49549;DHT22;35450;44.518;7.466;2023-03-01T04:36:16;5.50;96.60
49549;DHT22;35450;44.518;7.466;2023-03-01T04:39:20;5.50;96.80
49549;DHT22;35450;44.518;7.466;2023-03-01T04:42:24;5.50;96.90
49549;DHT22;35450;44.518;7.466;2023-03-01T04:45:28;5.50;97.10
49549;DHT22;35450;44.518;7.466;2023-03-01T04:48:32;5.60;96.70
49549;DHT22;35450;44.518;7.466;2023-03-01T04:51:36;5.60;96.10
49549;DHT22;35450;44.518;7.466;2023-03-01T04:54:40;5.50;95.90
49549;DHT22;35450;44.518;7.466;2023-03-01T04:57:44;5.50;95.80
49549;DHT22;35450;44.518;7.466;2023-03-01T05:00:48;5.40;96.00
49549;DHT22;35450;44.518;7.466;2023-03-01T05:03:52;5.50;95.80
49549;DHT22;35450;44.518;7.466;2023-03-01T05:06:56;5.50;96.00
49549;DHT22;35450;44.518;7.466;2023-03-01T05:10:02;5.50;96.40
49549;DHT22;35450;44.518;7.466;2023-03-01T05:13:06;5.40;96.60
49549;DHT22;35450;44.518;7.466;2023-03-01T05:16:10;5.50;96.70
49549;DHT22;35450;44.518;7.466;2023-03-01T05:19:17;5.50;96.20
49549;DHT22;35450;44.518;7.466;2023-03-01T05:22:26;5.50;96.00
49549;DHT22;35450;44.518;7.466;2023-03-01T05:25:32;5.50;96.10
49549;DHT22;35450;44.518;7.466;2023-03-01T05:28:37;5.50;96.20
49549;DHT22;35450;44.518;7.466;2023-03-01T05:31:41;5.50;96.30
49549;DHT22;35450;44.518;7.466;2023-03-01T05:34:46;5.30;96.50
49549;DHT22;35450;44.518;7.466;2023-03-01T05:37:51;5.30;96.70
49549;DHT22;35450;44.518;7.466;2023-03-01T05:40:55;5.40;96.40
49549;DHT22;35450;44.518;7.466;2023-03-01T05:43:59;5.40;96.40
49549;DHT22;35450;44.518;7.466;2023-03-01T05:47:03;5.40;96.20
49549;DHT22;35450;44.518;7.466;2023-03-01T05:50:08;5.40;95.90
49549;DHT22;35450;44.518;7.466;2023-03-01T05:53:14;5.40;96.00
49549;DHT22;35450;44.518;7.466;2023-03-01T05:56:18;5.40;96.30
49549;DHT22;35450;44.518;7.466;2023-03-01T05:59:22;5.40;96.20
49549;DHT22;35450;44.518;7.466;2023-03-01T06:02:27;5.40;96.10
49549;DHT22;35450;44.518;7.466;2023-03-01T06:05:31;5.40;96.10
49549;DHT22;35450;44.518;7.466;2023-03-01T06:08:35;5.40;96.10
49549;DHT22;35450;44.518;7.466;2023-03-01T06:11:39;5.40;96.50
49549;DHT22;35450;44.518;7.466;2023-03-01T06:14:44;5.40;96.50
49549;DHT22;35450;44.518;7.466;2023-03-01T06:17:48;5.40;96.40
49549;DHT22;35450;44.518;7.466;2023-03-01T06:20:54;5.30;96.30
49549;DHT22;35450;44.518;7.466;2023-03-01T06:23:58;5.30;96.20
49549;DHT22;35450;44.518;7.466;2023-03-01T06:27:02;5.40;96.10
49549;DHT22;35450;44.518;7.466;2023-03-01T06:30:08;5.40;95.80
49549;DHT22;35450;44.518;7.466;2023-03-01T06:33:14;5.50;95.80
49549;DHT22;35450;44.518;7.466;2023-03-01T06:36:18;5.50;96.10
49549;DHT22;35450;44.518;7.466;2023-03-01T06:39:24;5.40;96.60
49549;DHT22;35450;44.518;7.466;2023-03-01T06:42:28;5.40;97.00
49549;DHT22;35450;44.518;7.466;2023-03-01T06:45:32;5.30;97.00
49549;DHT22;35450;44.518;7.466;2023-03-01T06:48:36;5.40;97.10
49549;DHT22;35450;44.518;7.466;2023-03-01T06:51:41;5.50;97.00
49549;DHT22;35450;44.518;7.466;2023-03-01T06:54:45;5.40;96.90
49549;DHT22;35450;44.518;7.466;2023-03-01T06:57:57;5.30;97.00
49549;DHT22;35450;44.518;7.466;2023-03-01T07:01:06;5.30;97.20
49549;DHT22;35450;44.518;7.466;2023-03-01T07:04:11;5.30;97.10
49549;DHT22;35450;44.518;7.466;2023-03-01T07:07:16;5.40;96.90
49549;DHT22;35450;44.518;7.466;2023-03-01T07:10:21;5.40;96.90
49549;DHT22;35450;44.518;7.466;2023-03-01T07:13:25;5.40;96.60
49549;DHT22;35450;44.518;7.466;2023-03-01T07:16:29;5.60;96.50
49549;DHT22;35450;44.518;7.466;2023-03-01T07:19:33;5.50;96.50
49549;DHT22;35450;44.518;7.466;2023-03-01T07:22:40;5.50;96.70
49549;DHT22;35450;44.518;7.466;2023-03-01T07:25:50;5.50;96.00
49549;DHT22;35450;44.518;7.466;2023-03-01T07:28:54;5.60;95.80
49549;DHT22;35450;44.518;7.466;2023-03-01T07:31:58;5.70;95.70
49549;DHT22;35450;44.518;7.466;2023-03-01T07:35:02;5.70;96.30
49549;DHT22;35450;44.518;7.466;2023-03-01T07:38:06;5.70;96.40
49549;DHT22;35450;44.518;7.466;2023-03-01T07:41:10;5.70;96.60
49549;DHT22;35450;44.518;7.466;2023-03-01T07:44:15;5.60;96.80
49549;DHT22;35450;44.518;7.466;2023-03-01T07:47:20;5.50;97.10
49549;DHT22;35450;44.518;7.466;2023-03-01T07:50:24;5.50;97.20
49549;DHT22;35450;44.518;7.466;2023-03-01T07:53:28;5.60;97.10
49549;DHT22;35450;44.518;7.466;2023-03-01T07:56:32;5.60;96.80
49549;DHT22;35450;44.518;7.466;2023-03-01T07:59:36;5.60;96.70
49549;DHT22;35450;44.518;7.466;2023-03-01T08:02:40;5.50;97.20
49549;DHT22;35450;44.518;7.466;2023-03-01T08:05:45;5.50;97.50
49549;DHT22;35450;44.518;7.466;2023-03-01T08:08:49;5.70;97.50
49549;DHT22;35450;44.518;7.466;2023-03-01T08:11:53;5.70;97.20
49549;DHT22;35450;44.518;7.466;2023-03-01T08:14:58;5.90;96.80
49549;DHT22;35450;44.518;7.466;2023-03-01T08:18:02;5.90;96.40
49549;DHT22;35450;44.518;7.466;2023-03-01T08:21:08;6.00;96.30
49549;DHT22;35450;44.518;7.466;2023-03-01T08:24:12;6.10;96.70
49549;DHT22;35450;44.518;7.466;2023-03-01T08:27:17;6.10;96.60
49549;DHT22;35450;44.518;7.466;2023-03-01T08:30:21;6.20;96.40
49549;DHT22;35450;44.518;7.466;2023-03-01T08:33:27;6.10;96.80
49549;DHT22;35450;44.518;7.466;2023-03-01T08:36:34;6.10;96.80
49549;DHT22;35450;44.518;7.466;2023-03-01T08:39:39;6.10;97.10
49549;DHT22;35450;44.518;7.466;2023-03-01T08:42:43;6.10;97.10
49549;DHT22;35450;44.518;7.466;2023-03-01T08:45:48;6.20;97.20
49549;DHT22;35450;44.518;7.466;2023-03-01T08:48:52;6.20;96.80
49549;DHT22;35450;44.518;7.466;2023-03-01T08:51:56;6.20;96.40
49549;DHT22;35450;44.518;7.466;2023-03-01T08:55:00;6.20;96.30
49549;DHT22;35450;44.518;7.466;2023-03-01T08:58:05;6.30;96.40
49549;DHT22;35450;44.518;7.466;2023-03-01T09:01:10;6.30;96.50
49549;DHT22;35450;44.518;7.466;2023-03-01T09:04:15;6.50;96.30
49549;DHT22;35450;44.518;7.466;2023-03-01T09:07:20;6.50;96.10
49549;DHT22;35450;44.518;7.466;2023-03-01T09:10:24;6.60;96.40
49549;DHT22;35450;44.518;7.466;2023-03-01T09:13:28;6.70;96.40
49549;DHT22;35450;44.518;7.466;2023-03-01T09:16:34;6.70;96.30
49549;DHT22;35450;44.518;7.466;2023-03-01T09:19:39;6.60;96.10
49549;DHT22;35450;44.518;7.466;2023-03-01T09:22:43;6.60;96.10
49549;DHT22;35450;44.518;7.466;2023-03-01T09:25:47;6.60;96.10
49549;DHT22;35450;44.518;7.466;2023-03-01T09:28:53;6.40;95.20
49549;DHT22;35450;44.518;7.466;2023-03-01T09:31:57;6.40;95.20
49549;DHT22;35450;44.518;7.466;2023-03-01T09:35:01;6.30;95.30
49549;DHT22;35450;44.518;7.466;2023-03-01T09:38:08;6.40;95.10
49549;DHT22;35450;44.518;7.466;2023-03-01T09:41:54;6.50;94.60
49549;DHT22;35450;44.518;7.466;2023-03-01T09:44:59;6.50;95.10
49549;DHT22;35450;44.518;7.466;2023-03-01T09:48:16;6.70;95.10
49549;DHT22;35450;44.518;7.466;2023-03-01T09:51:32;6.90;94.80
49549;DHT22;35450;44.518;7.466;2023-03-01T09:54:36;7.00;94.50
49549;DHT22;35450;44.518;7.466;2023-03-01T09:57:51;7.10;93.70
49549;DHT22;35450;44.518;7.466;2023-03-01T10:01:02;7.10;93.80
49549;DHT22;35450;44.518;7.466;2023-03-01T10:10:54;7.20;92.50
49549;DHT22;35450;44.518;7.466;2023-03-01T10:17:57;7.20;92.90
49549;DHT22;35450;44.518;7.466;2023-03-01T10:21:15;7.10;92.40
49549;DHT22;35450;44.518;7.466;2023-03-01T10:24:20;7.00;91.80
49549;DHT22;35450;44.518;7.466;2023-03-01T10:27:40;7.10;92.00
49549;DHT22;35450;44.518;7.466;2023-03-01T10:30:46;7.10;92.00
49549;DHT22;35450;44.518;7.466;2023-03-01T10:33:50;7.20;91.60
49549;DHT22;35450;44.518;7.466;2023-03-01T10:37:11;7.20;91.30
49549;DHT22;35450;44.518;7.466;2023-03-01T10:40:15;7.30;91.30
49549;DHT22;35450;44.518;7.466;2023-03-01T10:43:41;7.30;91.20
49549;DHT22;35450;44.518;7.466;2023-03-01T10:46:59;7.40;91.50
49549;DHT22;35450;44.518;7.466;2023-03-01T10:50:08;7.40;91.80
49549;DHT22;35450;44.518;7.466;2023-03-01T10:53:24;7.30;91.70
49549;DHT22;35450;44.518;7.466;2023-03-01T10:56:52;7.30;91.70
49549;DHT22;35450;44.518;7.466;2023-03-01T11:00:16;7.40;91.70
49549;DHT22;35450;44.518;7.466;2023-03-01T11:03:27;7.40;91.90
49549;DHT22;35450;44.518;7.466;2023-03-01T11:06:35;7.40;92.30
49549;DHT22;35450;44.518;7.466;2023-03-01T11:09:40;7.20;92.50
49549;DHT22;35450;44.518;7.466;2023-03-01T11:12:44;7.30;92.60
49549;DHT22;35450;44.518;7.466;2023-03-01T11:16:07;7.30;92.50
49549;DHT22;35450;44.518;7.466;2023-03-01T11:19:19;7.40;92.70
49549;DHT22;35450;44.518;7.466;2023-03-01T11:22:24;7.50;91.80
49549;DHT22;35450;44.518;7.466;2023-03-01T11:25:35;7.40;91.50
49549;DHT22;35450;44.518;7.466;2023-03-01T11:28:41;7.50;91.50
49549;DHT22;35450;44.518;7.466;2023-03-01T11:31:46;7.40;91.60
49549;DHT22;35450;44.518;7.466;2023-03-01T11:41:16;7.60;90.70
49549;DHT22;35450;44.518;7.466;2023-03-01T11:44:26;7.50;90.40
49549;DHT22;35450;44.518;7.466;2023-03-01T11:50:44;7.30;90.70
49549;DHT22;35450;44.518;7.466;2023-03-01T12:08:28;7.30;91.50
49549;DHT22;35450;44.518;7.466;2023-03-01T12:11:19;7.40;91.80
49549;DHT22;35450;44.518;7.466;2023-03-01T12:24:23;7.40;93.00
49549;DHT22;35450;44.518;7.466;2023-03-01T12:28:08;7.30;92.70
49549;DHT22;35450;44.518;7.466;2023-03-01T12:48:40;7.50;93.30
49549;DHT22;35450;44.518;7.466;2023-03-01T12:52:14;7.50;93.40
49549;DHT22;35450;44.518;7.466;2023-03-01T13:05:02;7.40;93.00
49549;DHT22;35450;44.518;7.466;2023-03-01T13:08:20;7.40;93.20
49549;DHT22;35450;44.518;7.466;2023-03-01T13:11:27;7.40;93.20
49549;DHT22;35450;44.518;7.466;2023-03-01T13:17:44;7.30;93.00
49549;DHT22;35450;44.518;7.466;2023-03-01T13:20:51;7.40;93.00
49549;DHT22;35450;44.518;7.466;2023-03-01T13:23:55;7.40;92.80
49549;DHT22;35450;44.518;7.466;2023-03-01T13:33:49;7.40;92.60
49549;DHT22;35450;44.518;7.466;2023-03-01T13:37:09;7.50;92.70
49549;DHT22;35450;44.518;7.466;2023-03-01T13:46:33;7.40;92.80
49549;DHT22;35450;44.518;7.466;2023-03-01T13:52:53;7.40;93.00
49549;DHT22;35450;44.518;7.466;2023-03-01T13:56:11;7.50;92.90
49549;DHT22;35450;44.518;7.466;2023-03-01T13:59:19;7.50;92.90
49549;DHT22;35450;44.518;7.466;2023-03-01T14:02:23;7.50;92.90
49549;DHT22;35450;44.518;7.466;2023-03-01T14:05:28;7.50;92.60
49549;DHT22;35450;44.518;7.466;2023-03-01T14:08:33;7.50;92.40
49549;DHT22;35450;44.518;7.466;2023-03-01T14:14:44;7.40;93.10
49549;DHT22;35450;44.518;7.466;2023-03-01T14:20:53;7.50;93.00
49549;DHT22;35450;44.518;7.466;2023-03-01T14:23:57;7.40;92.60
49549;DHT22;35450;44.518;7.466;2023-03-01T14:27:02;7.40;93.00
49549;DHT22;35450;44.518;7.466;2023-03-01T14:30:27;7.40;93.00
49549;DHT22;35450;44.518;7.466;2023-03-01T14:33:36;7.40;93.30
49549;DHT22;35450;44.518;7.466;2023-03-01T14:36:41;7.40;93.00
49549;DHT22;35450;44.518;7.466;2023-03-01T14:39:45;7.50;93.00
49549;DHT22;35450;44.518;7.466;2023-03-01T14:42:49;7.50;93.10
49549;DHT22;35450;44.518;7.466;2023-03-01T14:45:54;7.50;92.90
49549;DHT22;35450;44.518;7.466;2023-03-01T14:49:15;7.50;93.00
49549;DHT22;35450;44.518;7.466;2023-03-01T14:52:21;7.50;92.90
49549;DHT22;35450;44.518;7.466;2023-03-01T14:55:30;7.60;93.10
49549;DHT22;35450;44.518;7.466;2023-03-01T14:58:38;7.50;93.80
49549;DHT22;35450;44.518;7.466;2023-03-01T15:01:43;7.50;93.80
49549;DHT22;35450;44.518;7.466;2023-03-01T15:04:56;7.50;93.50
49549;DHT22;35450;44.518;7.466;2023-03-01T15:08:02;7.50;93.40
49549;DHT22;35450;44.518;7.466;2023-03-01T15:14:39;7.60;93.00
49549;DHT22;35450;44.518;7.466;2023-03-01T15:17:52;7.60;93.10
49549;DHT22;35450;44.518;7.466;2023-03-01T15:21:32;7.80;93.10
49549;DHT22;35450;44.518;7.466;2023-03-01T15:24:34;7.70;93.20
49549;DHT22;35450;44.518;7.466;2023-03-01T15:27:45;7.70;93.50
49549;DHT22;35450;44.518;7.466;2023-03-01T15:30:56;7.60;94.00
49549;DHT22;35450;44.518;7.466;2023-03-01T15:34:32;7.60;94.50
49549;DHT22;35450;44.518;7.466;2023-03-01T15:37:44;7.50;95.30
49549;DHT22;35450;44.518;7.466;2023-03-01T15:40:52;7.40;95.90
49549;DHT22;35450;44.518;7.466;2023-03-01T15:44:01;7.40;96.20
49549;DHT22;35450;44.518;7.466;2023-03-01T15:47:27;7.30;96.70
49549;DHT22;35450;44.518;7.466;2023-03-01T15:50:36;7.30;97.20
49549;DHT22;35450;44.518;7.466;2023-03-01T15:53:50;7.30;97.70
49549;DHT22;35450;44.518;7.466;2023-03-01T15:56:55;7.30;98.00
49549;DHT22;35450;44.518;7.466;2023-03-01T15:59:59;7.20;98.20
49549;DHT22;35450;44.518;7.466;2023-03-01T16:03:03;7.00;98.60
49549;DHT22;35450;44.518;7.466;2023-03-01T16:06:09;7.00;98.90
49549;DHT22;35450;44.518;7.466;2023-03-01T16:09:14;7.00;98.80
49549;DHT22;35450;44.518;7.466;2023-03-01T16:12:18;7.00;98.90
49549;DHT22;35450;44.518;7.466;2023-03-01T16:15:32;7.00;99.30
49549;DHT22;35450;44.518;7.466;2023-03-01T16:18:38;6.90;99.70
49549;DHT22;35450;44.518;7.466;2023-03-01T16:21:43;6.90;99.90
49549;DHT22;35450;44.518;7.466;2023-03-01T16:24:50;6.90;99.20
49549;DHT22;35450;44.518;7.466;2023-03-01T16:27:54;6.90;99.30
49549;DHT22;35450;44.518;7.466;2023-03-01T16:30:59;6.90;99.40
49549;DHT22;35450;44.518;7.466;2023-03-01T16:34:05;6.90;99.10
49549;DHT22;35450;44.518;7.466;2023-03-01T16:37:09;6.90;99.10
49549;DHT22;35450;44.518;7.466;2023-03-01T16:43:20;7.00;98.70
49549;DHT22;35450;44.518;7.466;2023-03-01T16:46:26;6.90;98.60
49549;DHT22;35450;44.518;7.466;2023-03-01T16:49:31;6.80;98.10
49549;DHT22;35450;44.518;7.466;2023-03-01T16:52:35;6.80;98.40
49549;DHT22;35450;44.518;7.466;2023-03-01T16:55:39;6.70;99.10
49549;DHT22;35450;44.518;7.466;2023-03-01T16:58:49;6.60;99.20
49549;DHT22;35450;44.518;7.466;2023-03-01T17:01:53;6.50;98.80
49549;DHT22;35450;44.518;7.466;2023-03-01T17:04:57;6.50;98.60
49549;DHT22;35450;44.518;7.466;2023-03-01T17:08:01;6.50;98.40
49549;DHT22;35450;44.518;7.466;2023-03-01T17:11:07;6.20;98.50
49549;DHT22;35450;44.518;7.466;2023-03-01T17:14:12;6.10;98.70
49549;DHT22;35450;44.518;7.466;2023-03-01T17:17:16;6.00;99.00
49549;DHT22;35450;44.518;7.466;2023-03-01T17:20:20;6.10;98.80
49549;DHT22;35450;44.518;7.466;2023-03-01T17:23:25;6.20;98.20
49549;DHT22;35450;44.518;7.466;2023-03-01T17:26:29;6.20;97.80
49549;DHT22;35450;44.518;7.466;2023-03-01T17:29:34;6.10;97.70
49549;DHT22;35450;44.518;7.466;2023-03-01T17:32:38;6.00;97.70
49549;DHT22;35450;44.518;7.466;2023-03-01T17:35:42;6.00;97.90
49549;DHT22;35450;44.518;7.466;2023-03-01T17:38:49;5.90;98.00
49549;DHT22;35450;44.518;7.466;2023-03-01T17:41:53;5.80;98.10
49549;DHT22;35450;44.518;7.466;2023-03-01T17:44:57;5.90;98.10
49549;DHT22;35450;44.518;7.466;2023-03-01T17:48:01;5.80;98.10
49549;DHT22;35450;44.518;7.466;2023-03-01T17:51:10;5.80;98.30
49549;DHT22;35450;44.518;7.466;2023-03-01T17:54:14;5.80;98.20
49549;DHT22;35450;44.518;7.466;2023-03-01T17:57:18;5.80;98.40
49549;DHT22;35450;44.518;7.466;2023-03-01T18:00:22;5.90;98.50
49549;DHT22;35450;44.518;7.466;2023-03-01T18:03:27;5.90;98.40
49549;DHT22;35450;44.518;7.466;2023-03-01T18:06:31;5.90;98.30
49549;DHT22;35450;44.518;7.466;2023-03-01T18:09:35;5.90;98.30
49549;DHT22;35450;44.518;7.466;2023-03-01T18:12:39;6.00;98.20
49549;DHT22;35450;44.518;7.466;2023-03-01T18:15:43;5.90;98.20
49549;DHT22;35450;44.518;7.466;2023-03-01T18:18:51;6.00;98.40
49549;DHT22;35450;44.518;7.466;2023-03-01T18:21:55;5.90;98.50
49549;DHT22;35450;44.518;7.466;2023-03-01T18:25:00;6.00;98.60
49549;DHT22;35450;44.518;7.466;2023-03-01T18:28:04;6.00;98.40
49549;DHT22;35450;44.518;7.466;2023-03-01T18:31:09;6.00;98.20
49549;DHT22;35450;44.518;7.466;2023-03-01T18:34:14;6.00;98.20
49549;DHT22;35450;44.518;7.466;2023-03-01T18:37:18;6.00;98.20
49549;DHT22;35450;44.518;7.466;2023-03-01T18:40:22;5.90;98.50
49549;DHT22;35450;44.518;7.466;2023-03-01T18:43:26;5.80;98.90
49549;DHT22;35450;44.518;7.466;2023-03-01T18:46:32;5.90;98.90
49549;DHT22;35450;44.518;7.466;2023-03-01T18:49:36;5.90;98.90
49549;DHT22;35450;44.518;7.466;2023-03-01T18:52:40;5.90;99.00
49549;DHT22;35450;44.518;7.466;2023-03-01T18:55:44;5.90;98.80
49549;DHT22;35450;44.518;7.466;2023-03-01T18:58:48;5.50;99.40
49549;DHT22;35450;44.518;7.466;2023-03-01T19:01:52;5.70;99.20
49549;DHT22;35450;44.518;7.466;2023-03-01T19:04:56;5.70;99.30
49549;DHT22;35450;44.518;7.466;2023-03-01T19:08:00;5.80;99.40
49549;DHT22;35450;44.518;7.466;2023-03-01T19:11:05;5.80;99.10
49549;DHT22;35450;44.518;7.466;2023-03-01T19:14:09;5.80;99.10
49549;DHT22;35450;44.518;7.466;2023-03-01T19:17:13;5.80;99.00
49549;DHT22;35450;44.518;7.466;2023-03-01T19:20:17;5.80;99.30
49549;DHT22;35450;44.518;7.466;2023-03-01T19:23:21;5.80;99.30
49549;DHT22;35450;44.518;7.466;2023-03-01T19:26:26;5.80;99.30
49549;DHT22;35450;44.518;7.466;2023-03-01T19:29:30;5.80;99.20
49549;DHT22;35450;44.518;7.466;2023-03-01T19:32:34;5.80;99.30
49549;DHT22;35450;44.518;7.466;2023-03-01T19:35:38;5.80;99.50
49549;DHT22;35450;44.518;7.466;2023-03-01T19:38:42;5.80;99.70
49549;DHT22;35450;44.518;7.466;2023-03-01T19:41:47;5.80;99.60
49549;DHT22;35450;44.518;7.466;2023-03-01T19:44:51;5.80;99.50
49549;DHT22;35450;44.518;7.466;2023-03-01T19:47:55;5.80;99.30
49549;DHT22;35450;44.518;7.466;2023-03-01T19:50:59;5.80;99.50
49549;DHT22;35450;44.518;7.466;2023-03-01T19:54:04;5.80;99.70
49549;DHT22;35450;44.518;7.466;2023-03-01T19:57:08;5.80;99.80
49549;DHT22;35450;44.518;7.466;2023-03-01T20:00:13;5.80;99.90
49549;DHT22;35450;44.518;7.466;2023-03-01T20:03:18;5.80;99.80
49549;DHT22;35450;44.518;7.466;2023-03-01T20:06:22;5.70;99.90
49549;DHT22;35450;44.518;7.466;2023-03-01T20:09:28;5.70;99.90
49549;DHT22;35450;44.518;7.466;2023-03-01T20:12:35;5.60;99.90
49549;DHT22;35450;44.518;7.466;2023-03-01T20:15:42;5.60;99.90
49549;DHT22;35450;44.518;7.466;2023-03-01T20:18:46;5.60;99.90
49549;DHT22;35450;44.518;7.466;2023-03-01T20:21:50;5.40;99.90
49549;DHT22;35450;44.518;7.466;2023-03-01T20:24:55;5.30;99.90
49549;DHT22;35450;44.518;7.466;2023-03-01T20:27:59;5.30;99.90
49549;DHT22;35450;44.518;7.466;2023-03-01T20:31:08;5.40;99.90
49549;DHT22;35450;44.518;7.466;2023-03-01T20:34:13;5.40;99.90
49549;DHT22;35450;44.518;7.466;2023-03-01T20:37:17;5.50;99.90
49549;DHT22;35450;44.518;7.466;2023-03-01T20:40:21;5.30;99.90
49549;DHT22;35450;44.518;7.466;2023-03-01T20:43:29;5.40;99.90
49549;DHT22;35450;44.518;7.466;2023-03-01T20:46:34;5.50;99.90
49549;DHT22;35450;44.518;7.466;2023-03-01T20:49:38;5.50;99.90
49549;DHT22;35450;44.518;7.466;2023-03-01T20:52:42;5.60;99.60
49549;DHT22;35450;44.518;7.466;2023-03-01T20:55:46;5.60;99.40
49549;DHT22;35450;44.518;7.466;2023-03-01T20:58:50;5.50;99.40
49549;DHT22;35450;44.518;7.466;2023-03-01T21:01:54;5.50;99.40
49549;DHT22;35450;44.518;7.466;2023-03-01T21:04:58;5.40;99.60
49549;DHT22;35450;44.518;7.466;2023-03-01T21:08:02;5.40;99.50
49549;DHT22;35450;44.518;7.466;2023-03-01T21:11:06;5.30;99.80
49549;DHT22;35450;44.518;7.466;2023-03-01T21:14:10;5.30;99.80
49549;DHT22;35450;44.518;7.466;2023-03-01T21:17:16;5.10;99.90
49549;DHT22;35450;44.518;7.466;2023-03-01T21:20:20;5.30;99.80
49549;DHT22;35450;44.518;7.466;2023-03-01T21:23:24;5.20;99.60
49549;DHT22;35450;44.518;7.466;2023-03-01T21:26:27;5.30;99.80
49549;DHT22;35450;44.518;7.466;2023-03-01T21:29:36;5.30;99.70
49549;DHT22;35450;44.518;7.466;2023-03-01T21:32:40;5.30;99.70
49549;DHT22;35450;44.518;7.466;2023-03-01T21:35:44;5.30;99.60
49549;DHT22;35450;44.518;7.466;2023-03-01T21:38:49;5.30;99.70
49549;DHT22;35450;44.518;7.466;2023-03-01T21:41:58;5.40;99.90
49549;DHT22;35450;44.518;7.466;2023-03-01T21:45:03;5.20;99.90
49549;DHT22;35450;44.518;7.466;2023-03-01T21:48:07;5.10;99.90
49549;DHT22;35450;44.518;7.466;2023-03-01T21:51:12;4.90;99.90
49549;DHT22;35450;44.518;7.466;2023-03-01T21:54:18;4.80;99.90
49549;DHT22;35450;44.518;7.466;2023-03-01T21:57:22;4.50;99.90